Watkins Glen, New York
Current Conditions -  °F | °C
As of 12:53 PM on Tuesday 21 Oct 2014 (Local Time) from KELM Reporting Station
Overcast Overcast  
Wind Chill: 54°   Ceiling: 1600
Heat Index: 54°   Visibility: 10mi
Dew Point: 50°   Wind: 3mph
Humidity: 86%   Direction: 280°W
Pressure: 29.85"   Gusts: NA
Location:  42.38°N, 76.87°W
Report Text: KELM 211653Z 28003KT 10SM OVC016 12/10 A2985 RMK AO2 SLP110 T01220100
Loading
Personal Weather Stations






























Interactive Weather Map
Tropical Storm Tracking
New forecast layout! Learn more

10-Day Weather Forecast

Advertisements
Track Severe Weather on mobile